Terminal Aerodrome Forecast
Issued by NWS

Home | Current Version | Previous Version | Graphics & Text | Print | Product List | Glossary On
Versions: 1 2 3 4 5 6 7 8 9 10 11 12 13 14 15 16 17
000
FTUS42 KMHX 291131
TAFISO
TAF
KISO 291131Z 2912/3012 VRB04KT P6SM -SHRA BKN025
     FM291400 14006KT P6SM VCSH SCT030 BKN080
     FM291700 17007KT P6SM VCTS SCT030CB BKN050
     FM292100 16008KT P6SM BKN040
     FM300200 VRB04KT P6SM SCT250
     FM300600 VRB04KT 3SM BR SCT250
      AMD LTD TO CLD VIS AND WIND=

USA.gov is the U.S. government's official web portal to all federal, state and local government web resources and services.